Skip Navigation LinksHome page > Weather > Current weather Skip Navigation Links

Current Weather

Ben-Gurion Intl Apt, Tel Aviv, Israel

For information only: do not use for flight planning or navigation.
Latest weather
Observation time Thursday, September 29, 2016 12:50 PM IDT
Local time Thursday, September 29, 2016 1:14 PM IDT
Flight conditions Visual Meteorological Conditions
Winds
Wind direction Northwest (310°)
Wind speed 14 mph
Visibility 6.2 mi.
Sky condition
Ceiling unlimited
Sky clear
Temperature 84°F
Dewpoint 64°F
Altimeter 30.00 in.Hg
Derived measurements
Relative humidity 52%
Heat index 86°F
Density altitude 1958 ft.
Remarks
Ceiling and visibility OK.
No significant changes expected in the next two hours.
METAR LLBG 290950Z 31012KT CAVOK 29/18 Q1016 NOSIG

Settings

Location code

InnerDrive.Weather 4.0.5722.1 Release CLR 4.0.30319.34209
Copyright ©2015 Inner Drive Technology. All rights reserved. Portions Copyright ©1986-2015 David Braverman.

Find weather

Site navigation


Skip Navigation Links

Place info

Page info

PayPal - The safer, easier way to pay online!

Return home.

Copyright ©2016 Inner Drive Technology. Purveyors of fine, hand-crafted computer software. Page printed 2016-09-29T10:14:38 UTC.